createdAt,value
2023-04-24T00:00:57.462Z,1.20
2023-04-24T00:03:25.771Z,2.42
2023-04-24T00:05:53.834Z,1.90
2023-04-24T00:08:22.347Z,1.30
2023-04-24T00:10:50.365Z,1.23
2023-04-24T00:13:18.311Z,1.70
2023-04-24T00:15:47.777Z,1.25
2023-04-24T00:18:15.747Z,1.77
2023-04-24T00:20:44.738Z,1.83
2023-04-24T00:23:12.845Z,1.30
2023-04-24T00:25:41.083Z,1.60
2023-04-24T00:28:09.090Z,0.93
2023-04-24T00:30:37.274Z,1.30
2023-04-24T00:33:06.744Z,1.13
2023-04-24T00:35:34.719Z,1.37
2023-04-24T00:38:02.787Z,1.10
2023-04-24T00:40:31.113Z,0.80
2023-04-24T00:42:59.472Z,1.50
2023-04-24T00:45:27.443Z,0.93
2023-04-24T00:47:55.716Z,0.80
2023-04-24T00:50:27.526Z,0.83
2023-04-24T00:52:55.544Z,1.10
2023-04-24T00:55:23.579Z,0.97
2023-04-24T00:57:52.061Z,0.90
2023-04-24T01:00:20.869Z,0.93
2023-04-24T01:02:50.752Z,0.57
2023-04-24T01:05:20.000Z,0.57
2023-04-24T01:07:50.325Z,0.50
2023-04-24T01:10:21.338Z,0.47
2023-04-24T01:12:49.286Z,0.40
2023-04-24T01:15:17.459Z,1.33
2023-04-24T01:17:46.259Z,0.50
2023-04-24T01:20:15.487Z,0.97
2023-04-24T01:22:44.960Z,0.50
2023-04-24T01:25:12.938Z,0.60
2023-04-24T01:27:40.996Z,0.47
2023-04-24T01:30:10.250Z,0.40
2023-04-24T01:32:39.199Z,0.63
2023-04-24T01:35:08.960Z,0.40
2023-04-24T01:37:38.399Z,0.47
2023-04-24T01:40:09.291Z,1.07
2023-04-24T01:42:37.356Z,1.63
2023-04-24T01:45:06.978Z,0.37
2023-04-24T01:47:35.016Z,0.60
2023-04-24T01:50:03.057Z,0.30
2023-04-24T01:52:32.276Z,0.30
2023-04-24T01:55:02.327Z,0.40
2023-04-24T01:57:32.510Z,0.40
2023-04-24T02:00:00.570Z,0.30
2023-04-24T02:02:29.831Z,0.30
2023-04-24T02:04:57.994Z,0.37
2023-04-24T02:07:25.931Z,0.30
2023-04-24T02:09:53.890Z,0.57
2023-04-24T02:12:21.939Z,0.40
2023-04-24T02:14:51.419Z,0.20
2023-04-24T02:17:20.209Z,0.73
2023-04-24T02:19:48.226Z,1.03
2023-04-24T02:22:16.197Z,1.13
2023-04-24T02:24:44.174Z,0.20
2023-04-24T02:27:12.627Z,0.33
2023-04-24T02:29:40.850Z,0.40
2023-04-24T02:32:13.124Z,1.20
2023-04-24T02:34:41.225Z,0.30
2023-04-24T02:37:09.344Z,0.40
2023-04-24T02:39:37.395Z,0.30
2023-04-24T02:42:05.597Z,0.73
2023-04-24T02:44:33.649Z,1.17
2023-04-24T02:47:01.677Z,0.83
2023-04-24T02:49:31.076Z,0.47
2023-04-24T02:51:59.014Z,0.50
2023-04-24T02:54:26.982Z,1.37
2023-04-24T02:56:54.932Z,0.20
2023-04-24T02:59:22.874Z,0.40
2023-04-24T03:01:50.980Z,0.57
2023-04-24T03:04:21.346Z,0.50
2023-04-24T03:06:52.763Z,0.93
2023-04-24T03:09:20.874Z,0.40
2023-04-24T03:11:49.671Z,0.30
2023-04-24T03:14:17.742Z,0.70
2023-04-24T03:16:45.729Z,0.60
2023-04-24T03:19:13.800Z,1.33
2023-04-24T03:21:42.031Z,0.53
2023-04-24T03:24:11.360Z,0.60
2023-04-24T03:26:39.306Z,0.40
2023-04-24T03:29:07.251Z,0.40
2023-04-24T03:31:35.377Z,0.73
2023-04-24T03:34:03.432Z,1.70
2023-04-24T03:36:32.093Z,0.50
2023-04-24T03:39:00.104Z,0.33
2023-04-24T03:41:29.697Z,0.30
2023-04-24T03:43:57.965Z,0.30
2023-04-24T03:46:26.192Z,0.50
2023-04-24T03:48:54.218Z,0.77
2023-04-24T03:51:22.808Z,0.63
2023-04-24T03:53:50.790Z,0.23
2023-04-24T03:56:19.143Z,0.23
2023-04-24T03:58:48.428Z,0.30
2023-04-24T04:01:17.085Z,0.23
2023-04-24T04:03:45.264Z,0.40
2023-04-24T04:06:14.155Z,0.40
2023-04-24T04:08:42.124Z,0.53
2023-04-24T04:11:10.230Z,0.20
2023-04-24T04:13:38.174Z,0.40
2023-04-24T04:16:07.881Z,0.20
2023-04-24T04:18:36.313Z,0.23
2023-04-24T04:21:04.299Z,0.30
2023-04-24T04:23:33.083Z,0.57
2023-04-24T04:26:01.138Z,0.73
2023-04-24T04:28:29.134Z,0.80
2023-04-24T04:30:58.512Z,0.80
2023-04-24T04:33:27.994Z,0.97
2023-04-24T04:35:57.820Z,0.70
2023-04-24T04:38:27.743Z,0.80
2023-04-24T04:40:57.424Z,0.73
2023-04-24T04:43:26.235Z,0.83
2023-04-24T04:45:55.715Z,1.07
2023-04-24T04:48:23.777Z,1.07
2023-04-24T04:50:53.085Z,1.37
2023-04-24T04:53:21.004Z,1.03
2023-04-24T04:55:49.308Z,1.00
2023-04-24T04:58:17.343Z,1.30
2023-04-24T05:00:45.320Z,51.10
2023-04-24T05:05:46.974Z,0.30
2023-04-24T05:08:26.239Z,0.30
2023-04-24T05:10:54.987Z,0.30
2023-04-24T05:13:35.540Z,0.40
2023-04-24T05:16:04.201Z,0.53
2023-04-24T05:18:32.176Z,0.30
2023-04-24T05:21:00.156Z,0.40
2023-04-24T05:23:29.578Z,0.40
2023-04-24T05:25:57.768Z,0.60
2023-04-24T05:28:29.478Z,0.30
2023-04-24T05:30:57.871Z,0.50
2023-04-24T05:33:25.997Z,0.73
2023-04-24T05:35:54.006Z,0.95
2023-04-24T05:38:22.310Z,0.70
2023-04-24T05:40:51.612Z,0.40
2023-04-24T05:43:19.545Z,0.40
2023-04-24T05:45:47.548Z,0.30
2023-04-24T05:48:15.636Z,0.30
2023-04-24T05:50:44.502Z,1.70
2023-04-24T05:53:12.500Z,0.80
2023-04-24T05:55:40.579Z,0.30
2023-04-24T05:58:09.865Z,0.40
2023-04-24T06:00:37.861Z,0.30
2023-04-24T06:03:06.045Z,0.87
2023-04-24T06:05:34.308Z,0.30
2023-04-24T06:08:02.299Z,0.30
2023-04-24T06:10:30.301Z,1.43
2023-04-24T06:13:01.323Z,0.87
2023-04-24T06:15:32.571Z,0.60
2023-04-24T06:18:00.837Z,0.57
2023-04-24T06:20:29.036Z,0.50
2023-04-24T06:22:57.072Z,0.40
2023-04-24T06:25:27.274Z,0.70
2023-04-24T06:27:55.698Z,0.82
2023-04-24T06:30:23.894Z,1.33
2023-04-24T06:32:53.634Z,0.98
2023-04-24T06:35:21.638Z,0.30
2023-04-24T06:37:49.670Z,0.60
2023-04-24T06:40:19.517Z,0.40
2023-04-24T06:42:47.518Z,0.30
2023-04-24T06:45:15.698Z,0.70
2023-04-24T06:47:43.687Z,0.80
2023-04-24T06:50:13.588Z,0.30
2023-04-24T06:52:43.039Z,0.57
2023-04-24T06:55:12.165Z,0.30
2023-04-24T06:57:40.288Z,0.30
2023-04-24T07:00:10.421Z,0.93
2023-04-24T07:02:38.624Z,0.50
2023-04-24T07:05:07.914Z,0.30
2023-04-24T07:07:38.802Z,0.50
2023-04-24T07:10:09.668Z,2.00
2023-04-24T07:12:38.495Z,0.80
2023-04-24T07:15:08.882Z,0.40
2023-04-24T07:17:37.105Z,0.40
2023-04-24T07:20:06.649Z,0.40
2023-04-24T07:22:34.681Z,0.50
2023-04-24T07:25:04.100Z,1.30
2023-04-24T07:27:35.228Z,1.40
2023-04-24T07:30:03.313Z,1.60
2023-04-24T07:32:31.517Z,1.52
2023-04-24T07:34:59.496Z,0.50
2023-04-24T07:37:27.565Z,1.48
2023-04-24T07:39:55.612Z,1.50
2023-04-24T07:42:25.131Z,1.77
2023-04-24T07:44:53.103Z,1.98
2023-04-24T07:47:21.152Z,1.98
2023-04-24T07:49:49.166Z,1.70
2023-04-24T07:52:17.130Z,1.70
2023-04-24T07:54:45.246Z,2.00
2023-04-24T07:57:13.380Z,2.35
2023-04-24T07:59:43.059Z,2.20
2023-04-24T08:02:12.045Z,2.30
2023-04-24T08:04:40.244Z,2.78
2023-04-24T08:07:08.862Z,2.30
2023-04-24T08:09:36.864Z,2.53
2023-04-24T08:12:05.154Z,2.15
2023-04-24T08:14:33.284Z,2.10
2023-04-24T08:17:03.558Z,2.20
2023-04-24T08:19:31.672Z,3.40
2023-04-24T08:21:59.667Z,2.72
2023-04-24T08:24:27.646Z,2.80
2023-04-24T08:26:57.765Z,3.03
2023-04-24T08:29:25.927Z,2.97
2023-04-24T08:31:55.580Z,3.00
2023-04-24T08:34:25.047Z,0.93
2023-04-24T08:36:53.133Z,1.90
2023-04-24T08:39:21.244Z,0.75
2023-04-24T08:41:50.947Z,0.50
2023-04-24T08:44:19.531Z,0.50
2023-04-24T08:46:49.789Z,0.40
2023-04-24T08:49:18.339Z,0.60
2023-04-24T08:51:49.054Z,0.57
2023-04-24T08:54:17.124Z,0.40
2023-04-24T08:56:46.877Z,0.77
2023-04-24T08:59:15.264Z,0.63
2023-04-24T09:01:43.563Z,2.10
2023-04-24T09:04:13.318Z,1.33
2023-04-24T09:06:43.045Z,1.42
2023-04-24T09:09:13.690Z,1.30
2023-04-24T09:11:42.418Z,1.50
2023-04-24T09:14:11.865Z,1.70
2023-04-24T09:16:39.903Z,1.90
2023-04-24T09:19:07.958Z,1.60
2023-04-24T09:21:37.572Z,1.75
2023-04-24T09:24:08.155Z,1.95
2023-04-24T09:26:38.924Z,1.70
2023-04-24T09:29:07.083Z,1.70
2023-04-24T09:31:35.097Z,1.90
2023-04-24T09:34:08.128Z,2.00
2023-04-24T09:36:39.153Z,1.90
2023-04-24T09:39:11.933Z,2.40
2023-04-24T09:41:47.963Z,2.70
2023-04-24T09:44:18.003Z,2.80
2023-04-24T09:46:47.222Z,2.40
2023-04-24T09:49:17.303Z,2.60
2023-04-24T09:51:45.655Z,2.40
2023-04-24T09:54:18.181Z,2.40
2023-04-24T09:56:48.706Z,2.57
2023-04-24T09:59:17.736Z,2.70
2023-04-24T10:01:46.547Z,1.17
2023-04-24T10:04:19.328Z,1.73
2023-04-24T10:06:49.767Z,0.80
2023-04-24T10:09:18.003Z,1.30
2023-04-24T10:11:49.667Z,1.20
2023-04-24T10:14:18.856Z,1.60
2023-04-24T10:16:48.140Z,1.40
2023-04-24T10:19:16.357Z,1.20
2023-04-24T10:21:47.655Z,1.30
2023-04-24T10:24:16.727Z,1.17
2023-04-24T10:26:45.687Z,1.63
2023-04-24T10:29:16.635Z,1.77
2023-04-24T10:31:46.980Z,1.83
2023-04-24T10:34:17.704Z,1.90
2023-04-24T10:36:50.520Z,1.70
2023-04-24T10:39:19.708Z,2.10
2023-04-24T10:41:58.504Z,5.63
2023-04-24T10:44:37.909Z,6.23
2023-04-24T10:47:06.214Z,4.17
2023-04-24T10:49:34.563Z,4.67
2023-04-24T10:52:06.461Z,5.83
2023-04-24T10:54:37.786Z,7.83
2023-04-24T10:57:38.920Z,16.50
2023-04-24T11:00:17.644Z,28.80
2023-04-24T11:02:51.566Z,14.63
2023-04-24T11:05:20.981Z,19.00
2023-04-24T11:08:26.993Z,20.53
2023-04-24T11:11:00.490Z,19.23
2023-04-24T11:13:50.426Z,20.50
2023-04-24T11:16:23.614Z,20.13
2023-04-24T11:18:55.418Z,21.47
2023-04-24T11:21:24.837Z,25.67
2023-04-24T11:23:52.791Z,28.20
2023-04-24T11:26:25.305Z,35.20
2023-04-24T11:28:53.310Z,20.93
2023-04-24T11:31:39.040Z,21.60
2023-04-24T11:34:11.576Z,21.07
2023-04-24T11:36:40.080Z,19.07
2023-04-24T11:39:08.389Z,20.97
2023-04-24T11:41:37.171Z,23.53
2023-04-24T11:44:07.680Z,24.43
2023-04-24T11:46:35.908Z,20.20
2023-04-24T11:49:05.518Z,21.57
2023-04-24T11:51:43.883Z,29.07
2023-04-24T11:54:16.352Z,29.70
2023-04-24T11:56:48.031Z,20.07
2023-04-24T11:59:16.183Z,20.20
2023-04-24T12:01:47.481Z,17.57
2023-04-24T12:04:19.646Z,21.77
2023-04-24T12:07:03.781Z,36.80
2023-04-24T12:09:42.630Z,35.27
2023-04-24T12:12:13.143Z,29.40
2023-04-24T12:14:46.172Z,27.25
2023-04-24T12:17:14.338Z,18.00
2023-04-24T12:19:49.348Z,20.70
2023-04-24T12:22:17.432Z,18.67
2023-04-24T12:25:02.907Z,18.00
2023-04-24T12:27:33.955Z,18.48
2023-04-24T12:30:03.994Z,18.38
2023-04-24T12:32:32.059Z,18.20
2023-04-24T12:35:01.390Z,18.30
2023-04-24T12:37:37.447Z,18.60
2023-04-24T12:40:09.086Z,21.73
2023-04-24T12:42:38.062Z,19.05
2023-04-24T12:45:09.381Z,18.90
2023-04-24T12:47:37.783Z,18.40
2023-04-24T12:50:08.557Z,18.67
2023-04-24T12:52:36.810Z,19.25
2023-04-24T12:55:05.890Z,18.75
2023-04-24T12:57:33.810Z,19.43
2023-04-24T13:00:01.817Z,19.10
2023-04-24T13:02:31.508Z,19.10
2023-04-24T13:05:00.435Z,18.95
2023-04-24T13:07:30.218Z,18.50
2023-04-24T13:09:59.031Z,17.88
2023-04-24T13:12:27.566Z,17.92
2023-04-24T13:14:55.606Z,18.00
2023-04-24T13:17:24.360Z,17.88
2023-04-24T13:19:53.498Z,18.45
2023-04-24T13:22:22.526Z,17.67
2023-04-24T13:24:51.887Z,19.23
2023-04-24T13:27:20.322Z,19.98
2023-04-24T13:29:48.305Z,18.20
2023-04-24T13:32:16.458Z,18.40
2023-04-24T13:34:44.922Z,20.33
2023-04-24T13:37:12.908Z,31.90
2023-04-24T13:39:42.354Z,22.48
2023-04-24T13:42:11.840Z,18.27
2023-04-24T13:44:40.028Z,18.77
2023-04-24T13:47:07.986Z,19.30
2023-04-24T13:49:36.250Z,19.38
2023-04-24T13:52:04.534Z,19.60
2023-04-24T13:54:32.469Z,19.58
2023-04-24T13:57:01.565Z,18.83
2023-04-24T13:59:30.874Z,18.70
2023-04-24T14:01:58.977Z,17.65
2023-04-24T14:04:27.385Z,33.53
2023-04-24T14:06:55.541Z,24.35
2023-04-24T14:09:23.502Z,33.50
2023-04-24T14:11:51.514Z,19.30
2023-04-24T14:14:19.478Z,20.15
2023-04-24T14:16:48.776Z,18.23
2023-04-24T14:19:16.767Z,20.00
2023-04-24T14:21:44.748Z,18.17
2023-04-24T14:24:12.687Z,23.45
2023-04-24T14:26:40.644Z,17.70
2023-04-24T14:29:14.603Z,21.83
2023-04-24T14:31:43.207Z,24.50
2023-04-24T14:34:12.620Z,23.70
2023-04-24T14:36:40.706Z,23.83
2023-04-24T14:39:08.743Z,23.20
2023-04-24T14:41:38.194Z,23.38
2023-04-24T14:44:06.544Z,21.65
2023-04-24T14:46:34.862Z,24.23
2023-04-24T14:49:03.079Z,23.10
2023-04-24T14:51:32.490Z,22.95
2023-04-24T14:54:00.690Z,24.85
2023-04-24T14:56:28.754Z,23.85
2023-04-24T14:58:57.504Z,27.05
2023-04-24T15:01:26.390Z,36.92
2023-04-24T15:03:55.069Z,23.50
2023-04-24T15:06:23.249Z,23.27
2023-04-24T15:08:52.616Z,24.02
2023-04-24T15:11:21.252Z,24.52
2023-04-24T15:13:49.387Z,23.58
2023-04-24T15:16:17.750Z,24.10
2023-04-24T15:18:46.046Z,22.95
2023-04-24T15:21:14.244Z,35.25
2023-04-24T15:23:42.268Z,23.35
2023-04-24T15:26:11.588Z,23.85
2023-04-24T15:28:39.573Z,22.63
2023-04-24T15:31:07.581Z,21.90
2023-04-24T15:33:35.519Z,28.77
2023-04-24T15:36:03.496Z,21.48
2023-04-24T15:38:31.609Z,21.10
2023-04-24T15:40:59.551Z,21.73
2023-04-24T15:43:30.804Z,19.50
2023-04-24T15:45:59.280Z,24.05
2023-04-24T15:48:27.352Z,22.80
2023-04-24T15:50:55.451Z,23.13
2023-04-24T15:53:23.653Z,23.42
2023-04-24T15:55:52.564Z,22.63
2023-04-24T15:58:22.476Z,21.50
2023-04-24T16:00:52.034Z,22.42
2023-04-24T16:03:20.093Z,24.33
2023-04-24T16:05:48.144Z,28.65
2023-04-24T16:08:16.662Z,26.85
2023-04-24T16:10:47.006Z,26.35
2023-04-24T16:13:15.088Z,28.15
2023-04-24T16:15:43.374Z,27.90
2023-04-24T16:18:12.827Z,29.02
2023-04-24T16:20:40.961Z,28.10
2023-04-24T16:23:09.089Z,35.40
2023-04-24T16:25:39.090Z,25.55
2023-04-24T16:28:07.099Z,28.55
2023-04-24T16:30:36.568Z,30.38
2023-04-24T16:33:07.494Z,31.48
2023-04-24T16:35:37.194Z,30.02
2023-04-24T16:38:05.261Z,26.23
2023-04-24T16:40:33.491Z,29.38
2023-04-24T16:43:01.464Z,28.75
2023-04-24T16:45:29.417Z,29.23
2023-04-24T16:47:57.512Z,29.48
2023-04-24T16:50:25.550Z,19.33
2023-04-24T16:52:54.870Z,19.13
2023-04-24T16:55:24.184Z,19.48
2023-04-24T16:57:52.349Z,19.45
2023-04-24T17:00:20.997Z,19.50
2023-04-24T17:02:50.548Z,20.17
2023-04-24T17:05:22.390Z,20.35
2023-04-24T17:07:50.834Z,20.85
2023-04-24T17:10:20.171Z,20.30
2023-04-24T17:12:48.128Z,20.23
2023-04-24T17:15:16.064Z,19.85
2023-04-24T17:17:46.268Z,18.92
2023-04-24T17:20:21.895Z,19.08
2023-04-24T17:22:51.910Z,18.73
2023-04-24T17:25:21.853Z,19.20
2023-04-24T17:27:49.897Z,19.48
2023-04-24T17:30:18.143Z,19.30
2023-04-24T17:32:46.380Z,18.92
2023-04-24T17:35:14.441Z,18.48
2023-04-24T17:37:42.537Z,18.65
2023-04-24T17:40:11.370Z,19.02
2023-04-24T17:42:41.506Z,18.45
2023-04-24T17:45:10.871Z,18.80
2023-04-24T17:47:38.990Z,18.27
2023-04-24T17:50:07.821Z,18.40
2023-04-24T17:52:36.621Z,18.15
2023-04-24T17:55:04.858Z,18.08
2023-04-24T17:57:32.812Z,17.45
2023-04-24T18:00:02.093Z,16.95
2023-04-24T18:02:30.225Z,16.98
2023-04-24T18:04:58.291Z,16.67
2023-04-24T18:07:26.493Z,17.25
2023-04-24T18:09:56.226Z,17.38
2023-04-24T18:12:24.671Z,18.10
2023-04-24T18:14:57.260Z,18.73
2023-04-24T18:17:35.982Z,19.08
2023-04-24T18:20:04.152Z,18.95
2023-04-24T18:22:32.115Z,19.10
2023-04-24T18:25:01.329Z,19.00
2023-04-24T18:27:31.144Z,19.00
2023-04-24T18:29:59.521Z,20.27
2023-04-24T18:32:29.697Z,18.77
2023-04-24T18:34:59.165Z,18.90
2023-04-24T18:37:27.262Z,18.50
2023-04-24T18:39:56.359Z,19.13
2023-04-24T18:42:24.454Z,19.00
2023-04-24T18:44:52.455Z,20.38
2023-04-24T18:47:20.422Z,19.25
2023-04-24T18:49:48.424Z,19.70
2023-04-24T18:52:17.770Z,19.48
2023-04-24T18:54:45.808Z,19.27
2023-04-24T18:57:13.731Z,19.20
2023-04-24T18:59:41.737Z,20.42
2023-04-24T19:02:09.962Z,20.90
2023-04-24T19:04:38.051Z,18.55
2023-04-24T19:07:06.493Z,18.48
2023-04-24T19:09:35.816Z,19.58
2023-04-24T19:12:03.824Z,20.20
2023-04-24T19:14:31.759Z,17.90
2023-04-24T19:16:59.766Z,19.65
2023-04-24T19:19:28.878Z,18.27
2023-04-24T19:21:56.918Z,17.70
2023-04-24T19:24:26.127Z,18.40
2023-04-24T19:26:55.799Z,18.08
2023-04-24T19:29:23.905Z,18.15
2023-04-24T19:31:54.474Z,18.20
2023-04-24T19:34:22.538Z,19.60
2023-04-24T19:36:50.970Z,19.50
2023-04-24T19:39:19.298Z,19.73
2023-04-24T19:41:47.279Z,18.40
2023-04-24T19:44:17.341Z,18.70
2023-04-24T19:46:45.422Z,19.00
2023-04-24T19:49:15.219Z,18.48
2023-04-24T19:51:43.202Z,19.77
2023-04-24T19:54:11.649Z,19.63
2023-04-24T19:56:39.679Z,20.35
2023-04-24T19:59:07.628Z,20.10
2023-04-24T20:01:37.002Z,18.17
2023-04-24T20:04:07.745Z,17.50
2023-04-24T20:06:35.788Z,17.70
2023-04-24T20:09:05.892Z,18.40
2023-04-24T20:11:34.296Z,18.20
2023-04-24T20:14:03.696Z,17.93
2023-04-24T20:16:31.992Z,18.10
2023-04-24T20:19:01.418Z,17.97
2023-04-24T20:21:30.005Z,18.10
2023-04-24T20:23:57.978Z,17.93
2023-04-24T20:26:25.966Z,18.80
2023-04-24T20:28:53.957Z,19.03
2023-04-24T20:31:22.021Z,18.30
2023-04-24T20:33:50.149Z,19.93
2023-04-24T20:36:19.647Z,20.60
2023-04-24T20:38:48.142Z,18.90
2023-04-24T20:41:16.362Z,18.83
2023-04-24T20:43:44.534Z,18.80
2023-04-24T20:46:12.800Z,18.57
2023-04-24T20:48:40.976Z,18.70
2023-04-24T20:51:09.299Z,18.80
2023-04-24T20:53:38.621Z,18.67
2023-04-24T20:56:08.856Z,18.67
2023-04-24T20:58:36.941Z,18.70
2023-04-24T21:01:05.378Z,18.33
2023-04-24T21:03:33.536Z,18.70
2023-04-24T21:06:01.835Z,18.80
2023-04-24T21:08:29.895Z,18.50
2023-04-24T21:10:59.352Z,18.70
2023-04-24T21:13:27.368Z,18.73
2023-04-24T21:15:57.508Z,19.10
2023-04-24T21:18:26.210Z,18.30
2023-04-24T21:20:56.389Z,19.33
2023-04-24T21:23:24.544Z,19.27
2023-04-24T21:25:53.017Z,20.37
2023-04-24T21:28:25.051Z,18.90
2023-04-24T21:30:53.864Z,19.53
2023-04-24T21:33:21.922Z,19.53
2023-04-24T21:35:49.949Z,19.10
2023-04-24T21:38:19.592Z,19.03
2023-04-24T21:40:47.570Z,18.73
2023-04-24T21:43:16.046Z,20.50
2023-04-24T21:45:45.541Z,19.37
2023-04-24T21:48:13.785Z,19.30
2023-04-24T21:50:41.761Z,19.00
2023-04-24T21:53:09.804Z,20.00
2023-04-24T21:55:37.771Z,19.10
2023-04-24T21:58:05.837Z,18.90
2023-04-24T22:00:35.870Z,19.00
2023-04-24T22:03:05.837Z,18.80
2023-04-24T22:05:33.921Z,19.07
2023-04-24T22:08:01.960Z,19.10
2023-04-24T22:10:29.979Z,18.80
2023-04-24T22:12:58.070Z,18.77
2023-04-24T22:15:26.257Z,18.70
2023-04-24T22:17:54.383Z,18.63
2023-04-24T22:20:24.443Z,19.70
2023-04-24T22:22:52.512Z,18.77
2023-04-24T22:25:21.006Z,18.30
2023-04-24T22:27:48.954Z,18.43
2023-04-24T22:30:17.164Z,18.50
2023-04-24T22:32:45.350Z,18.03
2023-04-24T22:35:13.336Z,18.67
2023-04-24T22:37:42.705Z,18.47
2023-04-24T22:40:11.214Z,18.47
2023-04-24T22:42:39.206Z,18.90
2023-04-24T22:45:11.325Z,18.77
2023-04-24T22:47:39.370Z,18.67
2023-04-24T22:50:08.822Z,18.83
2023-04-24T22:52:36.855Z,18.57
2023-04-24T22:55:06.996Z,18.90
2023-04-24T22:57:35.342Z,18.50
2023-04-24T23:00:09.245Z,18.60
2023-04-24T23:02:37.363Z,18.90
2023-04-24T23:05:06.686Z,18.80
2023-04-24T23:07:35.436Z,18.43
2023-04-24T23:10:03.459Z,18.63
2023-04-24T23:12:32.857Z,18.63
2023-04-24T23:15:01.363Z,18.33
2023-04-24T23:17:29.377Z,18.50
2023-04-24T23:19:57.349Z,18.57
2023-04-24T23:22:25.476Z,18.97
2023-04-24T23:24:53.462Z,18.47
2023-04-24T23:27:21.484Z,18.53
2023-04-24T23:29:50.917Z,18.23
2023-04-24T23:32:18.970Z,18.67
2023-04-24T23:34:46.954Z,18.20
2023-04-24T23:37:15.523Z,18.20
2023-04-24T23:39:44.690Z,17.90
2023-04-24T23:42:12.672Z,18.33
2023-04-24T23:44:40.645Z,18.53
2023-04-24T23:47:09.961Z,18.73
2023-04-24T23:49:40.053Z,19.03
2023-04-24T23:52:08.058Z,18.50
2023-04-24T23:54:36.014Z,18.30
2023-04-24T23:57:04.593Z,17.53
2023-04-24T23:59:32.673Z,16.37
